Time;durP1;ratioP1;P1;durP2;ratioP2;P2;SDS_P1;SDS_P2;PMS_P1;PMS_P2;Temp;Humidity;BMP_temperature;BMP_pressure;BME280_temperature;BME280_humidity;BME280_pressure;Samples;Min_cycle;Max_cycle;Signal;HPM_P1;HPM_P2
2021/05/09 00:00:15;;;;;;;3.37;1.70;;;;;;;13.47;70.54;100685.47;5135439;27;20027;-38
2021/05/09 00:02:40;;;;;;;4.35;2.00;;;;;;;13.43;70.60;100675.38;5135018;27;20295;-38
2021/05/09 00:05:07;;;;;;;5.60;2.00;;;;;;;13.45;70.74;100681.38;5135029;27;20401;-38
2021/05/09 00:07:32;;;;;;;5.20;2.17;;;;;;;13.45;70.31;100673.22;5134642;27;20027;-38
2021/05/09 00:09:58;;;;;;;4.50;2.40;;;;;;;13.42;70.53;100674.56;5134987;27;20027;-38
2021/05/09 00:12:24;;;;;;;4.38;1.98;;;;;;;13.44;70.49;100663.44;5134552;27;20309;-38
2021/05/09 00:14:50;;;;;;;5.07;2.22;;;;;;;13.43;70.88;100670.75;5135165;27;20026;-38
2021/05/09 00:17:15;;;;;;;4.18;2.83;;;;;;;13.37;70.47;100666.31;5135379;27;20483;-38
2021/05/09 00:19:41;;;;;;;4.53;2.23;;;;;;;13.35;70.79;100658.44;5135524;27;20030;-38
2021/05/09 00:22:06;;;;;;;3.77;2.00;;;;;;;13.33;70.94;100659.78;5134512;27;20027;-38
2021/05/09 00:24:31;;;;;;;8.37;2.73;;;;;;;13.27;70.97;100660.78;5134743;27;20371;-38
2021/05/09 00:26:57;;;;;;;4.80;1.90;;;;;;;13.25;70.84;100652.06;5135237;27;20064;-38
2021/05/09 00:29:22;;;;;;;3.87;1.90;;;;;;;13.25;71.29;100654.78;5134218;27;20358;-38
2021/05/09 00:31:47;;;;;;;3.23;2.23;;;;;;;13.19;71.19;100656.59;5134957;27;20051;-38
2021/05/09 00:34:12;;;;;;;4.67;2.10;;;;;;;13.19;71.25;100648.44;5134630;27;20050;-38
2021/05/09 00:36:38;;;;;;;3.43;1.90;;;;;;;13.17;71.32;100644.31;5134249;27;20046;-38
2021/05/09 00:39:04;;;;;;;4.40;2.20;;;;;;;13.14;71.54;100640.25;5134436;27;20213;-38
2021/05/09 00:41:30;;;;;;;7.00;2.40;;;;;;;13.13;71.32;100636.72;5134490;27;20042;-38
2021/05/09 00:43:55;;;;;;;3.92;2.55;;;;;;;13.07;71.56;100626.03;5134596;27;20027;-38
2021/05/09 00:46:21;;;;;;;4.63;2.67;;;;;;;13.07;71.33;100639.59;5134102;27;20030;-38
2021/05/09 00:48:46;;;;;;;3.53;2.30;;;;;;;13.06;71.14;100637.97;5134066;27;20027;-38
2021/05/09 00:51:11;;;;;;;3.93;2.27;;;;;;;13.05;71.31;100631.72;5134612;27;20063;-38
2021/05/09 00:53:41;;;;;;;3.70;2.40;;;;;;;12.98;71.88;100624.81;5134318;27;20030;-38
2021/05/09 00:56:09;;;;;;;3.80;2.25;;;;;;;12.93;71.79;100622.84;5134320;27;20031;-38
2021/05/09 00:58:36;;;;;;;6.65;2.88;;;;;;;12.91;71.81;100625.00;5134723;27;20042;-38
2021/05/09 01:01:01;;;;;;;4.00;2.67;;;;;;;12.89;71.83;100625.28;5134232;28;20386;-38
2021/05/09 01:03:28;;;;;;;4.32;2.60;;;;;;;12.88;72.05;100625.50;5134703;28;20051;-38
2021/05/09 01:05:56;;;;;;;4.63;2.50;;;;;;;12.89;72.15;100624.47;5134262;28;20035;-38
2021/05/09 01:08:22;;;;;;;4.38;2.70;;;;;;;12.85;72.24;100621.41;5133989;28;20023;-38
2021/05/09 01:10:48;;;;;;;;;;;;;;;12.88;71.27;100609.22;5135050;28;20031;-38
2021/05/09 01:13:13;;;;;;;2.72;2.17;;;;;;;12.81;72.25;100603.19;5134341;27;20002;-38
2021/05/09 01:15:39;;;;;;;5.45;2.47;;;;;;;12.74;72.33;100611.50;5134342;28;20118;-38
2021/05/09 01:18:05;;;;;;;6.15;2.60;;;;;;;12.71;72.83;100609.28;5134042;28;20420;-38
2021/05/09 01:20:34;;;;;;;6.55;2.58;;;;;;;12.69;72.73;100607.88;5133712;28;20076;-38
2021/05/09 01:22:59;;;;;;;6.50;2.55;;;;;;;12.65;72.72;100599.44;5134215;28;20076;-38
2021/05/09 01:25:25;;;;;;;6.68;2.22;;;;;;;12.63;72.70;100596.97;5133688;28;20385;-38
2021/05/09 01:27:51;;;;;;;2.95;2.40;;;;;;;12.60;72.78;100592.06;5133886;28;20027;-38
2021/05/09 01:30:17;;;;;;;5.03;2.63;;;;;;;12.53;73.20;100591.41;5133811;28;20027;-38
2021/05/09 01:32:42;;;;;;;4.93;2.53;;;;;;;12.48;73.44;100588.63;5134012;28;20042;-38
2021/05/09 01:35:08;;;;;;;5.60;2.63;;;;;;;12.47;73.70;100586.97;5134233;28;20031;-38
2021/05/09 01:37:33;;;;;;;4.88;2.63;;;;;;;12.46;73.23;100577.22;5134213;28;20269;-38
2021/05/09 01:39:59;;;;;;;3.77;2.40;;;;;;;12.41;73.34;100584.47;5133802;27;20030;-38
2021/05/09 01:42:24;;;;;;;4.10;2.53;;;;;;;12.39;73.97;100579.25;5137616;27;20023;-38
2021/05/09 01:44:55;;;;;;;3.73;2.70;;;;;;;12.36;73.77;100571.66;5138134;27;20110;-38
2021/05/09 01:47:21;;;;;;;4.53;2.70;;;;;;;12.40;73.57;100580.94;5137835;27;20102;-38
2021/05/09 01:49:46;;;;;;;;;;;;;;;12.45;72.59;100577.47;5138755;27;20023;-38
2021/05/09 01:52:12;;;;;;;5.30;2.60;;;;;;;12.32;73.99;100570.50;5137686;27;20317;-38
2021/05/09 01:54:37;;;;;;;3.87;2.40;;;;;;;12.23;73.94;100570.09;5138231;27;20133;-38
2021/05/09 01:57:03;;;;;;;4.20;2.77;;;;;;;12.23;74.02;100580.94;5137810;27;20080;-38
2021/05/09 01:59:28;;;;;;;3.42;2.55;;;;;;;12.24;74.08;100565.47;5137744;27;20122;-38
2021/05/09 02:01:54;;;;;;;4.27;2.87;;;;;;;12.13;74.46;100575.34;5137236;27;20106;-38
2021/05/09 02:04:19;;;;;;;4.83;3.00;;;;;;;12.07;74.36;100566.34;5137529;27;20063;-38
2021/05/09 02:06:44;;;;;;;7.40;2.60;;;;;;;12.07;74.74;100563.63;5137595;27;20030;-38
2021/05/09 02:09:09;;;;;;;6.43;2.80;;;;;;;12.07;74.00;100563.63;5137338;27;20019;-38
2021/05/09 02:11:35;;;;;;;4.47;3.10;;;;;;;11.95;75.06;100559.34;5137964;27;20108;-38
2021/05/09 02:14:00;;;;;;;7.10;3.10;;;;;;;11.96;74.66;100551.00;5137834;27;20051;-38
2021/05/09 02:16:25;;;;;;;3.90;2.90;;;;;;;11.88;74.97;100556.00;5137848;27;20096;-38
2021/05/09 02:18:51;;;;;;;3.93;2.43;;;;;;;11.84;74.88;100542.94;5136926;27;20080;-38
2021/05/09 02:21:16;;;;;;;4.33;2.73;;;;;;;11.82;74.77;100544.25;5136381;27;20027;-37
2021/05/09 02:23:41;;;;;;;4.90;3.07;;;;;;;11.86;75.28;100542.72;5137370;27;20075;-38
2021/05/09 02:26:07;;;;;;;4.57;2.83;;;;;;;11.84;75.27;100534.81;5136613;27;20111;-38
2021/05/09 02:28:32;;;;;;;5.83;3.00;;;;;;;11.82;75.22;100531.53;5137200;27;20026;-38
2021/05/09 02:30:57;;;;;;;4.93;3.20;;;;;;;11.77;75.86;100533.31;5136756;27;20081;-38
2021/05/09 02:33:23;;;;;;;6.10;2.90;;;;;;;11.71;75.99;100532.41;5137203;27;20027;-38
2021/05/09 02:35:48;;;;;;;4.97;3.10;;;;;;;11.69;75.63;100526.41;5137522;27;20470;-38
2021/05/09 02:38:13;;;;;;;5.00;3.00;;;;;;;11.71;75.60;100518.03;5136689;27;20050;-37
2021/05/09 02:40:39;;;;;;;3.63;2.90;;;;;;;11.71;76.02;100512.59;5137330;27;20055;-38
2021/05/09 02:43:04;;;;;;;7.13;3.97;;;;;;;11.71;76.21;100513.44;5136434;27;20429;-37
2021/05/09 02:45:29;;;;;;;8.35;3.08;;;;;;;11.72;76.21;100515.09;5136506;27;20023;-38
2021/05/09 02:47:55;;;;;;;5.13;3.37;;;;;;;11.69;76.26;100517.47;5136299;27;20034;-38
2021/05/09 02:50:20;;;;;;;4.73;3.10;;;;;;;11.64;75.95;100514.66;5136614;27;20405;-38
2021/05/09 02:52:45;;;;;;;3.57;2.80;;;;;;;11.58;76.30;100514.59;5136123;27;20019;-38
2021/05/09 02:55:11;;;;;;;5.07;2.90;;;;;;;11.57;76.61;100522.97;5136547;27;20025;-38
2021/05/09 02:57:37;;;;;;;3.83;3.00;;;;;;;11.58;75.86;100528.13;5136347;27;20481;-38
2021/05/09 03:00:04;;;;;;;5.37;3.37;;;;;;;11.51;76.76;100522.03;5136955;27;20042;-38
2021/05/09 03:02:29;;;;;;;4.90;3.40;;;;;;;11.49;76.43;100517.94;5136133;27;20547;-38
2021/05/09 03:04:55;;;;;;;4.70;2.88;;;;;;;11.49;76.58;100517.94;5136215;27;20084;-38
2021/05/09 03:07:20;;;;;;;4.47;3.20;;;;;;;11.57;76.07;100515.66;5136213;27;20038;-38
2021/05/09 03:09:45;;;;;;;4.00;2.50;;;;;;;11.54;76.45;100516.13;5136540;27;20019;-37
2021/05/09 03:12:11;;;;;;;7.57;3.40;;;;;;;11.48;77.05;100521.72;5136050;27;20066;-37
2021/05/09 03:14:36;;;;;;;3.73;3.03;;;;;;;11.50;77.23;100523.09;5135796;27;20063;-37
2021/05/09 03:17:01;;;;;;;5.53;2.80;;;;;;;11.56;76.14;100514.00;5136322;27;20027;-38
2021/05/09 03:19:27;;;;;;;4.80;3.10;;;;;;;11.46;77.02;100508.41;5135680;27;20054;-37
2021/05/09 03:21:52;;;;;;;4.13;2.73;;;;;;;11.46;76.95;100511.13;5135805;27;20534;-37
2021/05/09 03:24:17;;;;;;;6.07;3.13;;;;;;;11.45;77.43;100514.91;5135872;27;20034;-37
2021/05/09 03:26:43;;;;;;;5.53;3.10;;;;;;;11.44;77.76;100510.56;5136079;27;20027;-37
2021/05/09 03:29:08;;;;;;;6.60;2.77;;;;;;;11.42;77.29;100511.84;5135717;27;20046;-37
2021/05/09 03:31:34;;;;;;;4.23;3.10;;;;;;;11.43;77.57;100503.50;5135955;27;20035;-37
2021/05/09 03:34:00;;;;;;;;;;;;;;;11.48;76.20;100502.78;5136902;27;20063;-37
2021/05/09 03:36:26;;;;;;;3.83;2.50;;;;;;;11.39;77.36;100491.50;5133724;27;20324;-37
2021/05/09 03:38:51;;;;;;;4.63;2.70;;;;;;;11.37;77.58;100496.38;5135848;27;20459;-37
2021/05/09 03:41:16;;;;;;;4.83;3.30;;;;;;;11.35;77.53;100502.00;5134246;27;20023;-37
2021/05/09 03:43:43;;;;;;;5.30;2.87;;;;;;;11.34;77.95;100499.56;5135534;27;20109;-37
2021/05/09 03:46:08;;;;;;;7.60;3.17;;;;;;;11.31;77.87;100492.72;5135931;27;20095;-37
2021/05/09 03:48:34;;;;;;;4.72;3.08;;;;;;;11.29;77.56;100489.44;5136104;27;20433;-37
2021/05/09 03:51:00;;;;;;;4.28;2.70;;;;;;;11.34;77.70;100483.31;5135112;27;20110;-37
2021/05/09 03:53:27;;;;;;;5.03;2.97;;;;;;;11.33;77.78;100481.69;5135266;27;20072;-37
2021/05/09 03:55:52;;;;;;;7.03;3.40;;;;;;;11.33;77.64;100476.25;5135726;27;20051;-37
2021/05/09 03:58:18;;;;;;;6.43;3.00;;;;;;;11.33;77.84;100477.06;5135789;27;20088;-37
2021/05/09 04:00:43;;;;;;;6.33;3.53;;;;;;;11.37;77.65;100469.28;5135182;27;20374;-37
2021/05/09 04:03:26;;;;;;;6.45;3.60;;;;;;;11.37;77.94;100469.28;5134076;27;20031;-37
2021/05/09 04:05:52;;;;;;;4.32;3.42;;;;;;;11.31;77.93;100470.25;5135427;27;20459;-37
2021/05/09 04:08:18;;;;;;;;;;;;;;;11.40;76.51;100457.13;5135456;27;20348;-37
2021/05/09 04:10:44;;;;;;;5.28;2.90;;;;;;;11.33;76.99;100458.13;5135327;27;19968;-37
2021/05/09 04:13:09;;;;;;;7.30;3.33;;;;;;;11.30;77.52;100455.09;5134857;27;20023;-37
2021/05/09 04:15:34;;;;;;;8.37;3.40;;;;;;;11.26;77.49;100440.41;5134702;27;20076;-37
2021/05/09 04:18:00;;;;;;;6.20;3.30;;;;;;;11.29;78.47;100454.25;5134573;27;20074;-37
2021/05/09 04:20:25;;;;;;;4.87;3.17;;;;;;;11.26;78.40;100462.88;5134858;27;20035;-37
2021/05/09 04:22:50;;;;;;;5.73;3.30;;;;;;;11.30;78.48;100465.91;5134738;27;20023;-37
2021/05/09 04:25:16;;;;;;;5.53;3.53;;;;;;;11.29;78.16;100461.56;5134738;27;20061;-37
2021/05/09 04:27:41;;;;;;;8.23;3.30;;;;;;;11.27;78.35;100467.22;5134399;27;20063;-38
2021/05/09 04:30:07;;;;;;;5.67;3.23;;;;;;;11.31;78.01;100475.66;5134492;27;20031;-38
2021/05/09 04:32:32;;;;;;;;;;;;;;;11.35;77.34;100474.94;5135253;27;20055;-38
2021/05/09 04:34:58;;;;;;;6.47;3.27;;;;;;;11.37;78.07;100472.00;5135244;27;20374;-38
2021/05/09 04:37:23;;;;;;;6.97;3.33;;;;;;;11.42;77.81;100472.09;5134256;27;20122;-38
2021/05/09 04:39:48;;;;;;;5.10;3.50;;;;;;;11.45;78.29;100473.47;5134586;27;20098;-38
2021/05/09 04:42:13;;;;;;;7.57;3.27;;;;;;;11.45;77.63;100468.88;5134401;27;20106;-38
2021/05/09 04:44:39;;;;;;;5.33;3.17;;;;;;;11.49;77.75;100459.19;5134231;27;20019;-37
2021/05/09 04:47:04;;;;;;;4.60;3.10;;;;;;;11.52;77.92;100466.84;5134024;27;20119;-37
2021/05/09 04:49:29;;;;;;;6.37;3.47;;;;;;;11.57;77.47;100468.81;5134992;27;20034;-37
2021/05/09 04:51:55;;;;;;;6.27;3.17;;;;;;;11.52;78.18;100466.84;5134015;27;20023;-37
2021/05/09 04:54:24;;;;;;;4.87;3.20;;;;;;;11.58;77.53;100455.00;5134253;27;20115;-38
2021/05/09 04:56:50;;;;;;;4.75;3.17;;;;;;;11.70;78.08;100464.94;5134152;27;20118;-38
2021/05/09 04:59:15;;;;;;;6.10;3.13;;;;;;;11.79;77.95;100455.31;5134180;27;20451;-38
2021/05/09 05:01:40;;;;;;;6.47;3.27;;;;;;;11.91;77.67;100460.66;5134468;27;20027;-38
2021/05/09 05:04:06;;;;;;;6.13;3.13;;;;;;;11.93;77.19;100450.41;5133910;28;20035;-38
2021/05/09 05:06:31;;;;;;;4.33;3.17;;;;;;;12.00;77.18;100457.28;5134385;28;20397;-38
2021/05/09 05:08:56;;;;;;;4.83;3.50;;;;;;;11.98;76.99;100464.84;5132785;28;20035;-46
2021/05/09 05:11:21;;;;;;;5.33;3.00;;;;;;;12.01;76.95;100461.66;5134677;28;20516;-38
2021/05/09 05:13:47;;;;;;;5.33;3.10;;;;;;;12.02;76.96;100455.16;5134382;27;20079;-38
2021/05/09 05:16:13;;;;;;;5.70;2.90;;;;;;;12.09;76.54;100454.97;5138504;27;20069;-38
2021/05/09 05:18:38;;;;;;;;;;;;;;;12.19;76.38;100448.84;5138704;27;20062;-38
2021/05/09 05:21:07;;;;;;;4.43;2.70;;;;;;;12.15;76.72;100447.72;5138493;27;19911;-38
2021/05/09 05:23:35;;;;;;;4.28;2.67;;;;;;;12.20;76.59;100445.91;5138162;27;20019;-38
2021/05/09 05:26:00;;;;;;;5.72;2.83;;;;;;;12.25;76.43;100448.69;5138082;27;20035;-38
2021/05/09 05:28:26;;;;;;;4.32;2.75;;;;;;;12.26;76.63;100452.22;5138378;27;20474;-38
2021/05/09 05:30:51;;;;;;;4.85;3.65;;;;;;;12.28;75.94;100442.75;5138147;27;20047;-38
2021/05/09 05:33:25;;;;;;;5.30;3.17;;;;;;;12.27;76.04;100449.25;5138012;27;20035;-38
2021/05/09 05:35:51;;;;;;;4.43;2.88;;;;;;;12.27;76.63;100441.09;5137992;27;20027;-38
2021/05/09 05:38:16;;;;;;;5.70;3.20;;;;;;;12.31;75.97;100430.59;5137890;27;20023;-37
2021/05/09 05:40:41;;;;;;;5.83;3.20;;;;;;;12.31;76.37;100436.81;5137963;27;20077;-37
2021/05/09 05:43:06;;;;;;;5.13;2.93;;;;;;;12.34;76.04;100441.72;5137582;27;20045;-38
2021/05/09 05:45:32;;;;;;;3.60;2.70;;;;;;;12.36;75.84;100438.78;5137777;27;20034;-38
2021/05/09 05:47:57;;;;;;;3.60;2.87;;;;;;;12.42;76.74;100437.75;5137480;27;20027;-38
2021/05/09 05:50:22;;;;;;;5.37;3.10;;;;;;;12.53;76.22;100433.28;5138268;27;20375;-38
2021/05/09 05:52:48;;;;;;;5.17;2.90;;;;;;;12.63;75.37;100428.78;5137696;27;20054;-38
2021/05/09 05:55:13;;;;;;;6.03;3.10;;;;;;;12.76;75.37;100429.47;5137971;27;20096;-38
2021/05/09 05:57:38;;;;;;;4.97;2.63;;;;;;;12.83;75.09;100420.06;5137208;27;20028;-38
2021/05/09 06:00:04;;;;;;;4.77;3.07;;;;;;;12.92;74.23;100417.69;5138083;27;20252;-38
2021/05/09 06:02:30;;;;;;;3.67;2.70;;;;;;;12.95;74.30;100419.06;5137183;27;20031;-37
2021/05/09 06:04:55;;;;;;;3.97;3.00;;;;;;;12.96;73.94;100426.94;5137502;27;20046;-38
2021/05/09 06:07:22;;;;;;;3.70;2.90;;;;;;;12.97;73.84;100425.06;5137332;27;20020;-37
2021/05/09 06:09:47;;;;;;;7.07;2.60;;;;;;;12.97;74.06;100423.16;5137573;27;20031;-38
2021/05/09 06:12:12;;;;;;;4.43;2.43;;;;;;;12.96;74.34;100424.25;5137009;27;20101;-38
2021/05/09 06:14:38;;;;;;;4.07;2.50;;;;;;;13.01;74.30;100412.63;5137366;27;20061;-38
2021/05/09 06:17:03;;;;;;;4.73;2.50;;;;;;;13.14;74.39;100423.06;5137655;27;20136;-38
2021/05/09 06:19:28;;;;;;;5.23;2.97;;;;;;;13.29;73.96;100415.06;5137711;27;20019;-38
2021/05/09 06:21:54;;;;;;;3.00;2.40;;;;;;;13.44;73.28;100400.78;5137065;27;20604;-38
2021/05/09 06:24:19;;;;;;;2.80;2.43;;;;;;;13.65;72.88;100401.72;5137358;27;20030;-38
2021/05/09 06:26:45;;;;;;;5.80;2.72;;;;;;;13.88;71.92;100405.97;5136130;27;20522;-38
2021/05/09 06:29:11;;;;;;;;;;;;;;;14.07;71.85;100401.72;5137060;27;20023;-38
2021/05/09 06:31:36;;;;;;;5.53;2.90;;;;;;;14.33;70.71;100397.19;5137734;27;19916;-38
2021/05/09 06:34:02;;;;;;;3.30;2.70;;;;;;;14.57;70.00;100389.41;5136840;27;20295;-38
2021/05/09 06:36:28;;;;;;;3.30;2.30;;;;;;;14.75;69.94;100381.81;5137549;27;20031;-38
2021/05/09 06:38:53;;;;;;;2.92;2.47;;;;;;;14.93;68.58;100387.56;5136982;27;20019;-38
2021/05/09 06:41:20;;;;;;;3.33;2.25;;;;;;;15.10;68.73;100381.84;5137009;27;20027;-38
2021/05/09 06:43:46;;;;;;;4.45;2.33;;;;;;;15.25;66.87;100377.50;5136660;27;20471;-38
2021/05/09 06:46:11;;;;;;;3.97;2.17;;;;;;;15.35;65.47;100374.75;5136218;27;20114;-38
2021/05/09 06:48:36;;;;;;;3.75;2.20;;;;;;;15.44;64.99;100381.28;5136265;27;20106;-38
2021/05/09 06:51:03;;;;;;;3.83;2.30;;;;;;;15.55;64.98;100369.28;5136547;27;20023;-38
2021/05/09 06:53:28;;;;;;;5.60;2.40;;;;;;;15.67;64.35;100367.13;5137130;27;20295;-38
2021/05/09 06:55:55;;;;;;;4.07;2.45;;;;;;;15.80;62.84;100356.72;5137461;27;20067;-38
2021/05/09 06:58:22;;;;;;;3.58;2.08;;;;;;;15.96;64.54;100350.13;5136825;27;20037;-38
2021/05/09 07:00:49;;;;;;;4.20;2.40;;;;;;;16.09;64.07;100335.88;5136682;27;20106;-37
2021/05/09 07:03:14;;;;;;;4.22;2.50;;;;;;;16.27;63.39;100323.50;5137035;27;20031;-37
2021/05/09 07:05:39;;;;;;;4.07;2.50;;;;;;;16.36;62.65;100329.19;5136767;27;20027;-37
2021/05/09 07:08:05;;;;;;;3.77;2.83;;;;;;;16.57;61.54;100338.06;5135989;27;20403;-37
2021/05/09 07:10:33;;;;;;;3.55;2.40;;;;;;;16.77;62.31;100337.97;5136732;27;20019;-37
2021/05/09 07:12:59;;;;;;;3.65;2.45;;;;;;;17.00;62.48;100344.63;5136058;27;20026;-37
2021/05/09 07:15:27;;;;;;;4.65;2.60;;;;;;;17.05;60.79;100347.31;5136340;27;20404;-37
2021/05/09 07:18:02;;;;;;;3.72;2.25;;;;;;;17.02;61.09;100338.84;5135712;27;20031;-37
2021/05/09 07:20:28;;;;;;;6.10;2.15;;;;;;;16.92;62.55;100334.28;5135699;27;20057;-37
2021/05/09 07:22:55;;;;;;;2.88;1.92;;;;;;;16.70;66.80;100327.34;5136109;27;20065;-38
2021/05/09 07:25:21;;;;;;;3.08;2.30;;;;;;;16.53;66.12;100317.91;5135802;27;20031;-38
2021/05/09 07:27:47;;;;;;;2.78;1.77;;;;;;;16.39;67.08;100314.97;5135799;27;20482;-38
2021/05/09 07:30:13;;;;;;;6.47;2.30;;;;;;;16.35;67.75;100306.56;5135902;27;20035;-38
2021/05/09 07:32:38;;;;;;;3.72;1.58;;;;;;;16.45;64.94;100301.03;5135207;27;20455;-39
2021/05/09 07:35:03;;;;;;;;;;;;;;;16.54;64.85;100292.22;5136954;27;20042;-39
2021/05/09 07:37:29;;;;;;;3.20;1.80;;;;;;;16.72;64.25;100289.66;5134652;27;19912;-39
2021/05/09 07:39:54;;;;;;;3.07;1.83;;;;;;;16.99;63.86;100299.28;5135524;27;20054;-39
2021/05/09 07:42:19;;;;;;;;;;;;;;;17.21;65.21;100296.88;5136296;27;20049;-39
2021/05/09 07:44:45;;;;;;;4.03;1.80;;;;;;;17.56;62.74;100294.88;5135510;27;20430;-39
2021/05/09 07:47:11;;;;;;;2.60;1.50;;;;;;;17.70;60.04;100297.72;5135173;27;20751;-39
2021/05/09 07:49:36;;;;;;;;;;;;;;;17.80;61.55;100302.28;5136126;27;20350;-39
2021/05/09 07:52:01;;;;;;;4.23;1.90;;;;;;;17.85;60.15;100302.22;5135364;27;19966;-39
2021/05/09 07:54:27;;;;;;;4.10;1.63;;;;;;;17.80;59.49;100294.09;5135837;27;20276;-37
2021/05/09 07:56:52;;;;;;;2.50;1.50;;;;;;;17.81;60.20;100290.22;5135890;27;20031;-37
2021/05/09 07:59:17;;;;;;;4.70;1.67;;;;;;;17.93;60.30;100285.16;5135183;27;20618;-37
2021/05/09 08:01:42;;;;;;;3.30;1.80;;;;;;;18.15;59.18;100290.88;5135227;27;20384;-37
2021/05/09 08:04:08;;;;;;;2.88;1.70;;;;;;;18.17;59.08;100285.94;5134804;27;20355;-37
2021/05/09 08:06:33;;;;;;;3.63;1.60;;;;;;;18.15;58.48;100281.84;5134833;27;20386;-38
2021/05/09 08:08:58;;;;;;;3.35;1.70;;;;;;;18.26;59.89;100273.22;5134737;27;20277;-39
2021/05/09 08:11:24;;;;;;;;;;;;;;;18.45;59.46;100267.75;5135714;27;20510;-37
2021/05/09 08:13:49;;;;;;;2.53;1.50;;;;;;;18.70;59.42;100269.28;5134895;27;19911;-38
2021/05/09 08:16:14;;;;;;;;;;;;;;;18.82;59.32;100265.25;5135323;27;20267;-38
2021/05/09 08:18:39;;;;;;;4.33;1.70;;;;;;;18.93;56.95;100258.47;5134578;27;19907;-39
2021/05/09 08:21:05;;;;;;;3.22;1.83;;;;;;;19.05;56.85;100258.81;5134172;27;20273;-39
2021/05/09 08:23:33;;;;;;;;;;;;;;;19.15;58.25;100264.13;5135192;27;20043;-38
2021/05/09 08:25:58;;;;;;;;;;;;;;;19.29;57.66;100256.72;5135359;27;19915;-38
2021/05/09 08:28:23;;;;;;;3.73;1.50;;;;;;;19.47;56.51;100256.94;5134881;27;20333;-39
2021/05/09 08:30:48;;;;;;;;;;;;;;;19.57;57.42;100259.50;5135004;27;20724;-40
2021/05/09 08:33:14;;;;;;;4.47;1.50;;;;;;;19.77;55.71;100266.53;5135007;27;19911;-39
2021/05/09 08:35:39;;;;;;;;;;;;;;;19.87;56.73;100270.97;5135276;27;20031;-37
2021/05/09 08:38:05;;;;;;;4.15;1.60;;;;;;;19.97;54.14;100259.78;5134197;27;19918;-38
2021/05/09 08:40:31;;;;;;;;;;;;;;;20.01;55.26;100260.78;5135446;27;20064;-38
2021/05/09 08:42:56;;;;;;;2.78;1.60;;;;;;;19.85;54.44;100256.75;5134445;27;19915;-38
2021/05/09 08:45:21;;;;;;;;;;;;;;;19.94;56.71;100260.38;5133983;27;20043;-39
2021/05/09 08:47:47;;;;;;;2.28;1.60;;;;;;;20.04;54.92;100240.94;5134059;27;20337;-38
2021/05/09 08:50:13;;;;;;;;;;;;;;;20.16;55.37;100241.25;5135229;27;20102;-38
2021/05/09 08:52:40;;;;;;;3.58;1.73;;;;;;;20.22;54.67;100239.19;5133041;27;19944;-38
2021/05/09 08:55:08;;;;;;;3.45;1.50;;;;;;;20.26;54.23;100243.75;5134624;27;20100;-39
2021/05/09 08:57:34;;;;;;;1.98;1.40;;;;;;;20.36;54.64;100247.38;5134137;27;20034;-38
2021/05/09 08:59:59;;;;;;;;;;;;;;;20.49;55.34;100238.28;5134767;27;20024;-38
2021/05/09 09:02:26;;;;;;;3.30;1.50;;;;;;;20.54;54.04;100238.16;5133953;27;19945;-39
2021/05/09 09:04:56;;;;;;;3.03;1.88;;;;;;;20.57;56.32;100240.28;5134455;27;20102;-38
2021/05/09 09:07:22;;;;;;;2.58;1.50;;;;;;;20.39;55.52;100235.75;5133540;27;20027;-38
2021/05/09 09:09:49;;;;;;;2.80;1.40;;;;;;;20.36;54.61;100237.19;5134139;28;20102;-38
2021/05/09 09:12:16;;;;;;;2.45;1.15;;;;;;;20.36;53.74;100247.38;5134387;28;20378;-38
2021/05/09 09:14:58;;;;;;;5.82;1.48;;;;;;;20.31;55.98;100260.09;5134101;28;20031;-38
2021/05/09 09:17:24;;;;;;;1.80;1.40;;;;;;;20.47;54.65;100260.56;5134902;28;20035;-38
2021/05/09 09:19:58;;;;;;;1.92;1.35;;;;;;;20.70;54.44;100260.59;5134075;28;20057;-38
2021/05/09 09:22:24;;;;;;;3.75;1.50;;;;;;;20.71;53.87;100251.22;5134049;28;20114;-38
2021/05/09 09:25:03;;;;;;;;;;;;;;;20.72;55.50;100252.84;5134454;28;20459;-39
2021/05/09 09:27:28;;;;;;;1.80;1.42;;;;;;;20.82;53.84;100242.38;5134460;27;20291;-38
2021/05/09 09:30:00;;;;;;;;;;;;;;;20.86;54.61;100247.28;5134398;28;20023;-38
2021/05/09 09:32:25;;;;;;;4.35;1.33;;;;;;;20.85;53.36;100245.66;5134934;27;19968;-38
2021/05/09 09:34:51;;;;;;;;;;;;;;;20.96;54.32;100223.06;5134320;28;20391;-38
2021/05/09 09:37:16;;;;;;;3.43;1.47;;;;;;;21.11;55.03;100188.06;5133974;27;19946;-39
2021/05/09 09:39:46;;;;;;;;;;;;;;;21.21;54.99;100161.09;5134287;28;20264;-39
2021/05/09 09:42:12;;;;;;;2.00;1.30;;;;;;;21.27;55.19;100145.25;5134153;27;19914;-37
2021/05/09 09:44:37;;;;;;;;;;;;;;;21.25;54.32;100162.06;5134789;28;20053;-37
2021/05/09 09:47:02;;;;;;;3.03;1.43;;;;;;;21.24;54.83;100187.97;5133772;27;19911;-38
2021/05/09 09:49:30;;;;;;;;;;;;;;;21.31;54.49;100207.56;5134222;28;20300;-38
2021/05/09 09:51:55;;;;;;;;;;;;;;;21.31;54.27;100193.81;5134473;27;20408;-38
2021/05/09 09:54:44;;;;;;;4.07;1.50;;;;;;;21.44;54.38;100191.28;5133768;27;19915;-38
2021/05/09 09:57:27;;;;;;;3.33;1.77;;;;;;;21.70;54.36;100183.09;5133964;28;20034;-38
2021/05/09 10:00:04;;;;;;;3.78;1.40;;;;;;;21.90;54.46;100187.16;5133386;28;20102;-38
2021/05/09 10:02:31;;;;;;;2.60;1.50;;;;;;;21.83;54.25;100171.94;5135840;27;20023;-38
2021/05/09 10:04:56;;;;;;;3.40;1.58;;;;;;;21.72;54.23;100180.84;5137361;27;20031;-38
2021/05/09 10:07:22;;;;;;;;;;;;;;;21.76;52.99;100196.34;5137705;27;20035;-38
2021/05/09 10:09:48;;;;;;;2.80;1.53;;;;;;;21.50;53.36;100201.81;5137895;27;19915;-38
2021/05/09 10:12:13;;;;;;;2.67;1.42;;;;;;;21.47;54.56;100185.97;5137135;27;20277;-38
2021/05/09 10:14:39;;;;;;;;;;;;;;;21.68;54.88;100186.16;5137623;27;20102;-38
2021/05/09 10:17:04;;;;;;;2.65;1.50;;;;;;;21.90;54.46;100187.16;5136896;27;19937;-38
2021/05/09 10:19:30;;;;;;;3.88;1.40;;;;;;;21.98;53.46;100189.09;5136832;27;20031;-38
2021/05/09 10:21:56;;;;;;;2.28;1.60;;;;;;;21.90;52.92;100182.44;5137407;27;20038;-38
2021/05/09 10:24:23;;;;;;;3.20;1.58;;;;;;;21.98;53.67;100172.59;5136040;27;20532;-38
2021/05/09 10:26:49;;;;;;;3.47;1.70;;;;;;;22.16;52.97;100174.25;5137012;27;20125;-38
2021/05/09 10:29:38;;;;;;;2.75;1.30;;;;;;;22.16;54.48;100173.44;5136933;27;20054;-38
2021/05/09 10:32:44;;;;;;;5.07;1.40;;;;;;;22.17;53.08;100161.28;5136651;27;20071;-38
2021/05/09 10:35:09;;;;;;;2.50;1.25;;;;;;;22.16;53.42;100157.72;5137683;27;20353;-38
2021/05/09 10:37:35;;;;;;;2.35;1.30;;;;;;;22.32;52.90;100145.06;5136824;27;20035;-38
2021/05/09 10:40:19;;;;;;;3.33;1.98;;;;;;;22.38;54.04;100150.41;5137008;27;20479;-38
2021/05/09 10:42:46;;;;;;;4.00;1.42;;;;;;;22.29;53.80;100151.22;5137528;27;20118;-38
2021/05/09 10:45:26;;;;;;;3.58;1.50;;;;;;;22.34;52.49;100137.25;5136671;27;20027;-38
2021/05/09 10:48:30;;;;;;;2.45;1.27;;;;;;;22.22;51.63;100139.09;5137095;27;20043;-38
2021/05/09 10:51:02;;;;;;;3.25;1.20;;;;;;;22.21;52.05;100138.28;5135742;27;20019;-39
2021/05/09 10:53:36;;;;;;;2.88;1.33;;;;;;;22.62;51.37;100109.34;5135040;27;20088;-38
2021/05/09 10:56:27;;;;;;;2.92;1.50;;;;;;;22.57;50.48;100071.75;5136670;27;20038;-38
2021/05/09 10:58:54;;;;;;;2.67;1.15;;;;;;;22.69;50.07;100081.25;5136631;27;20027;-38
2021/05/09 11:01:34;;;;;;;3.92;1.60;;;;;;;22.81;50.21;100078.63;5136629;27;20030;-39
2021/05/09 11:04:01;;;;;;;1.92;1.20;;;;;;;22.51;50.99;100072.28;5136335;27;20052;-38
2021/05/09 11:06:26;;;;;;;5.75;1.42;;;;;;;22.34;50.84;100098.72;5136588;27;20027;-39
2021/05/09 11:08:59;;;;;;;2.20;1.20;;;;;;;22.32;51.66;100122.22;5136959;27;20316;-39
2021/05/09 11:11:24;;;;;;;1.73;1.02;;;;;;;22.44;51.79;100129.81;5135860;27;20799;-39
2021/05/09 11:13:56;;;;;;;2.13;1.00;;;;;;;22.76;50.95;100134.75;5135779;27;20106;-39
2021/05/09 11:16:21;;;;;;;2.13;1.20;;;;;;;22.96;50.82;100122.19;5136406;27;20263;-38
2021/05/09 11:18:59;;;;;;;3.05;1.10;;;;;;;23.05;49.25;100122.16;5136606;27;20437;-38
2021/05/09 11:21:25;;;;;;;3.88;1.30;;;;;;;23.03;49.90;100135.47;5135687;27;20031;-39
2021/05/09 11:23:51;;;;;;;2.10;1.00;;;;;;;22.99;49.52;100142.78;5135505;27;20416;-38
2021/05/09 11:26:24;;;;;;;2.15;1.20;;;;;;;22.86;49.27;100141.84;5135489;27;20483;-38
2021/05/09 11:29:12;;;;;;;2.97;1.20;;;;;;;22.73;49.63;100159.38;5135523;27;20031;-39